Time;durP1;ratioP1;P1;durP2;ratioP2;P2;SDS_P1;SDS_P2;PMS_P1;PMS_P2;Temp;Humidity;BMP_temperature;BMP_pressure;BME280_temperature;BME280_humidity;BME280_pressure;Samples;Min_cycle;Max_cycle;Signal;HPM_P1;HPM_P2
2023/03/17 00:02:00;;;;;;;;;;;;;;;19.14;18.08;98886.00;5049371;28;20024;-86
2023/03/17 00:04:26;;;;;;;;;;;;;;;19.17;18.13;98892.78;5052768;28;19990;-86
2023/03/17 00:06:53;;;;;;;;;;;;;;;19.44;17.75;98890.72;5052323;28;19931;-86
2023/03/17 00:09:20;;;;;;;;;;;;;;;19.28;18.03;98890.91;5053355;28;19917;-86
2023/03/17 00:11:46;;;;;;;;;;;;;;;19.26;17.63;98880.16;5052982;28;19936;-86
2023/03/17 00:14:12;;;;;;;;;;;;;;;18.61;18.30;98874.25;5054889;28;20368;-86
2023/03/17 00:16:41;;;;;;;;;;;;;;;18.59;18.47;98873.84;5052164;28;19917;-86
2023/03/17 00:19:13;;;;;;;;;;;;;;;18.04;19.09;98877.38;5049809;28;19975;-86
2023/03/17 00:21:40;;;;;;;;;;;;;;;18.25;19.02;98872.13;5052293;28;19924;-86
2023/03/17 00:24:09;;;;;;;;;;;;;;;17.87;19.47;98875.16;5083697;28;20023;-86
2023/03/17 00:26:35;;;;;;;;;;;;;;;18.26;19.04;98870.97;5052790;28;19928;-86
2023/03/17 00:29:01;;;;;;;;;;;;;;;18.72;18.89;98865.25;5056960;28;19968;-86
2023/03/17 00:31:28;;;;;;;;;;;;;;;19.15;18.70;98870.09;5042885;28;19994;-87
2023/03/17 00:33:54;;;;;;;;;;;;;;;19.45;18.21;98865.25;5053075;28;19917;-87
2023/03/17 00:36:22;;;;;;;;;;;;;;;19.55;17.48;98870.13;5050276;28;20437;-87
2023/03/17 00:38:49;;;;;;;;;;;;;;;19.61;17.63;98878.91;5046828;28;19921;-86
2023/03/17 00:41:16;;;;;;;;;;;;;;;19.41;18.08;98872.78;5046743;28;20348;-87
2023/03/17 00:43:42;;;;;;;;;;;;;;;19.15;17.95;98878.47;5054311;28;20019;-86
2023/03/17 00:46:12;;;;;;;;;;;;;;;18.93;18.72;98879.38;5049781;28;20023;-86
2023/03/17 00:48:38;;;;;;;;;;;;;;;18.59;18.49;98882.19;5051426;28;19959;-86
2023/03/17 00:51:04;;;;;;;;;;;;;;;18.75;18.45;98867.25;5049232;28;19971;-86
2023/03/17 00:53:30;;;;;;;;;;;;;;;18.96;18.75;98873.88;5053508;28;19946;-86
2023/03/17 00:55:56;;;;;;;;;;;;;;;19.30;17.97;98881.00;5044840;28;19925;-87
2023/03/17 00:58:24;;;;;;;;;;;;;;;19.70;18.00;98871.84;5047412;28;19921;-86
2023/03/17 01:00:50;;;;;;;;;;;;;;;19.97;17.83;98869.69;5047914;28;19929;-86
2023/03/17 01:03:16;;;;;;;;;;;;;;;20.06;17.27;98877.69;5054002;28;19921;-86
2023/03/17 01:05:42;;;;;;;;;;;;;;;20.13;16.97;98878.53;5054606;28;20073;-87
2023/03/17 01:08:09;;;;;;;;;;;;;;;20.03;16.85;98882.06;5053954;28;19943;-86
2023/03/17 01:10:35;;;;;;;;;;;;;;;19.87;17.45;98876.75;5053781;28;19929;-86
2023/03/17 01:13:01;;;;;;;;;;;;;;;18.88;17.88;98880.53;5047995;28;20424;-86
2023/03/17 01:15:30;;;;;;;;;;;;;;;18.62;18.20;98866.72;5046860;28;19921;-86
2023/03/17 01:17:57;;;;;;;;;;;;;;;18.55;18.36;98869.41;5056070;28;20369;-86
2023/03/17 01:20:24;;;;;;;;;;;;;;;18.35;18.93;98867.91;5048206;28;19939;-86
2023/03/17 01:22:51;;;;;;;;;;;;;;;18.44;18.83;98860.88;5036008;28;19921;-86
2023/03/17 01:25:17;;;;;;;;;;;;;;;18.52;18.63;98865.41;5042120;28;19925;-86
2023/03/17 01:27:45;;;;;;;;;;;;;;;18.30;19.31;98863.47;5052763;28;19921;-85
2023/03/17 01:30:29;;;;;;;;;;;;;;;18.03;19.23;98864.69;5050987;28;19921;-86
2023/03/17 01:32:56;;;;;;;;;;;;;;;18.00;19.36;98872.94;5063096;28;19920;-86
2023/03/17 01:35:23;;;;;;;;;;;;;;;18.64;18.70;98864.34;5034299;28;20368;-86
2023/03/17 01:37:50;;;;;;;;;;;;;;;19.09;18.05;98875.19;5049801;28;20335;-86
2023/03/17 01:40:18;;;;;;;;;;;;;;;19.19;17.79;98868.97;5052001;28;19921;-86
2023/03/17 01:42:48;;;;;;;;;;;;;;;19.42;17.91;98870.81;5051097;28;20019;-86
2023/03/17 01:45:33;;;;;;;;;;;;;;;19.55;17.79;98866.53;5052644;28;19974;-86
2023/03/17 01:47:59;;;;;;;;;;;;;;;19.30;17.65;98869.84;5052875;28;19921;-86
2023/03/17 01:50:24;;;;;;;;;;;;;;;18.77;18.60;98868.47;5052048;28;20024;-86
2023/03/17 01:52:51;;;;;;;;;;;;;;;18.73;18.08;98859.31;5049897;28;19921;-86
2023/03/17 01:55:18;;;;;;;;;;;;;;;18.61;18.20;98856.75;5046498;28;20104;-86
2023/03/17 01:57:50;;;;;;;;;;;;;;;18.55;18.71;98853.50;5049539;28;20051;-86
2023/03/17 02:00:18;;;;;;;;;;;;;;;18.61;18.28;98853.97;5050835;28;19924;-86
2023/03/17 02:02:46;;;;;;;;;;;;;;;19.04;18.45;98856.06;5048653;28;19935;-86
2023/03/17 02:05:15;;;;;;;;;;;;;;;19.41;17.34;98861.66;5050772;28;19928;-86
2023/03/17 02:07:41;;;;;;;;;;;;;;;19.47;17.41;98846.19;5049255;28;20295;-86
2023/03/17 02:10:08;;;;;;;;;;;;;;;18.83;17.87;98849.47;5049493;28;19966;-86
2023/03/17 02:12:34;;;;;;;;;;;;;;;18.12;19.65;98850.50;5044578;28;19927;-85
2023/03/17 02:15:01;;;;;;;;;;;;;;;18.31;19.18;98845.63;5051403;28;19921;-86
2023/03/17 02:17:27;;;;;;;;;;;;;;;18.90;18.79;98849.56;5050587;28;19925;-86
2023/03/17 02:19:54;;;;;;;;;;;;;;;19.05;17.80;98852.09;5043322;28;20372;-86
2023/03/17 02:22:20;;;;;;;;;;;;;;;18.86;18.53;98851.47;5039738;28;19963;-86
2023/03/17 02:24:48;;;;;;;;;;;;;;;18.93;18.71;98848.78;5047597;28;19925;-86
2023/03/17 02:27:18;;;;;;;;;;;;;;;19.26;18.55;98851.53;5046941;28;20339;-86
2023/03/17 02:29:48;;;;;;;;;;;;;;;19.15;17.25;98843.06;5045291;28;19921;-86
2023/03/17 02:32:16;;;;;;;;;;;;;;;18.80;18.24;98841.88;5048434;28;19927;-86
2023/03/17 02:34:42;;;;;;;;;;;;;;;18.92;17.98;98836.06;5047344;28;19933;-86
2023/03/17 02:37:09;;;;;;;;;;;;;;;18.96;18.20;98831.34;5050240;28;20287;-86
2023/03/17 02:39:35;;;;;;;;;;;;;;;19.19;18.01;98835.56;5049558;28;19963;-86
2023/03/17 02:42:02;;;;;;;;;;;;;;;19.51;17.57;98829.50;5046644;28;19924;-85
2023/03/17 02:44:28;;;;;;;;;;;;;;;19.74;17.37;98841.25;5045329;28;20008;-86
2023/03/17 02:46:54;;;;;;;;;;;;;;;18.93;17.65;98843.22;5049173;28;19927;-86
2023/03/17 02:49:20;;;;;;;;;;;;;;;18.45;18.15;98840.28;5050100;28;19921;-85
2023/03/17 02:51:46;;;;;;;;;;;;;;;18.08;18.43;98844.09;5042504;28;19920;-85
2023/03/17 02:54:12;;;;;;;;;;;;;;;17.85;18.90;98835.84;5049780;28;19928;-86
2023/03/17 02:56:39;;;;;;;;;;;;;;;18.33;18.88;98836.91;5047766;28;19924;-86
2023/03/17 02:59:06;;;;;;;;;;;;;;;18.60;18.38;98833.72;5049969;28;19925;-85
2023/03/17 03:01:32;;;;;;;;;;;;;;;18.70;17.88;98835.00;5049420;28;19970;-86
2023/03/17 03:03:58;;;;;;;;;;;;;;;18.54;18.48;98838.00;5052554;28;20369;-86
2023/03/17 03:06:24;;;;;;;;;;;;;;;18.37;18.35;98833.00;5050085;28;20051;-85
2023/03/17 03:08:51;;;;;;;;;;;;;;;18.34;18.22;98827.41;5067392;28;19970;-86
2023/03/17 03:11:18;;;;;;;;;;;;;;;18.41;18.57;98835.84;5055529;28;19932;-86
2023/03/17 03:13:45;;;;;;;;;;;;;;;18.28;18.88;98834.44;5047241;28;19924;-86
2023/03/17 03:16:11;;;;;;;;;;;;;;;18.40;18.21;98829.47;5046473;28;19939;-86
2023/03/17 03:18:37;;;;;;;;;;;;;;;18.32;18.54;98830.53;5052156;28;19917;-86
2023/03/17 03:21:03;;;;;;;;;;;;;;;18.13;18.73;98841.81;5048347;28;20380;-86
2023/03/17 03:23:30;;;;;;;;;;;;;;;18.21;18.32;98840.72;5053002;28;20295;-86
2023/03/17 03:25:56;;;;;;;;;;;;;;;17.95;18.99;98835.97;5051120;28;19920;-86
2023/03/17 03:28:22;;;;;;;;;;;;;;;17.54;19.43;98845.25;5045112;28;19921;-86
2023/03/17 03:30:48;;;;;;;;;;;;;;;16.77;20.01;98835.50;5044887;28;20353;-86
2023/03/17 03:33:15;;;;;;;;;;;;;;;16.73;20.04;98840.19;5045413;28;19916;-86
2023/03/17 03:35:43;;;;;;;;;;;;;;;17.00;19.98;98834.38;5054846;28;20015;-87
2023/03/17 03:38:09;;;;;;;;;;;;;;;17.28;19.61;98828.53;5058522;28;20334;-86
2023/03/17 03:40:36;;;;;;;;;;;;;;;17.06;19.82;98838.44;5054513;28;19929;-86
2023/03/17 03:43:02;;;;;;;;;;;;;;;16.43;20.61;98834.38;5055472;28;19920;-86
2023/03/17 03:45:28;;;;;;;;;;;;;;;17.39;19.41;98820.38;5049294;28;19921;-86
2023/03/17 03:47:54;;;;;;;;;;;;;;;15.71;21.32;98814.59;5053043;28;20296;-86
2023/03/17 03:50:20;;;;;;;;;;;;;;;16.00;21.16;98815.25;5056539;28;19928;-87
2023/03/17 03:52:46;;;;;;;;;;;;;;;16.59;20.80;98819.31;5051460;28;19924;-86
2023/03/17 03:55:13;;;;;;;;;;;;;;;17.44;19.59;98820.06;5054944;28;19921;-86
2023/03/17 03:57:39;;;;;;;;;;;;;;;18.26;18.76;98823.72;5053382;28;19947;-86
2023/03/17 04:00:06;;;;;;;;;;;;;;;18.38;18.50;98831.00;5052267;28;20419;-86
2023/03/17 04:02:32;;;;;;;;;;;;;;;17.59;19.27;98835.81;5051201;28;19917;-86
2023/03/17 04:04:58;;;;;;;;;;;;;;;17.41;19.36;98832.69;5052235;28;20058;-86
2023/03/17 04:07:24;;;;;;;;;;;;;;;16.84;19.96;98839.22;5051583;28;19971;-86
2023/03/17 04:09:51;;;;;;;;;;;;;;;16.93;20.02;98828.69;5062653;28;19944;-86
2023/03/17 04:12:17;;;;;;;;;;;;;;;17.22;19.54;98824.47;5043580;28;19925;-86
2023/03/17 04:14:43;;;;;;;;;;;;;;;17.13;19.62;98821.09;5054676;28;19927;-86
2023/03/17 04:17:09;;;;;;;;;;;;;;;17.33;19.52;98821.88;5054139;28;19917;-86
2023/03/17 04:19:36;;;;;;;;;;;;;;;17.33;19.16;98816.31;5053741;28;21041;-86
2023/03/17 04:22:02;;;;;;;;;;;;;;;17.68;18.98;98819.69;5053675;28;19940;-86
2023/03/17 04:24:28;;;;;;;;;;;;;;;17.64;18.67;98816.06;5053438;28;19932;-86
2023/03/17 04:26:55;;;;;;;;;;;;;;;17.72;19.00;98809.44;5052180;28;19921;-86
2023/03/17 04:29:21;;;;;;;;;;;;;;;16.43;20.43;98813.03;5052806;28;19925;-86
2023/03/17 04:31:47;;;;;;;;;;;;;;;16.98;19.99;98825.63;5051227;28;20392;-86
2023/03/17 04:34:15;;;;;;;;;;;;;;;17.90;18.68;98824.38;5047799;28;19932;-86
2023/03/17 04:36:41;;;;;;;;;;;;;;;17.76;18.67;98833.31;5051804;28;19953;-86
2023/03/17 04:39:07;;;;;;;;;;;;;;;17.52;19.24;98827.38;5047627;28;20391;-86
2023/03/17 04:41:34;;;;;;;;;;;;;;;18.11;18.79;98830.25;5050711;28;19944;-86
2023/03/17 04:44:00;;;;;;;;;;;;;;;18.49;18.48;98838.34;5053670;28;19928;-87
2023/03/17 04:46:26;;;;;;;;;;;;;;;18.69;17.96;98849.31;5052457;28;20459;-87
2023/03/17 04:48:52;;;;;;;;;;;;;;;18.61;17.83;98835.31;5048302;28;19960;-86
2023/03/17 04:51:18;;;;;;;;;;;;;;;17.19;19.25;98839.06;5062583;28;19945;-86
2023/03/17 04:53:44;;;;;;;;;;;;;;;17.29;19.30;98844.03;5063957;28;20395;-86
2023/03/17 04:56:10;;;;;;;;;;;;;;;16.82;19.92;98844.34;5051106;28;19925;-86
2023/03/17 04:58:37;;;;;;;;;;;;;;;17.16;19.71;98839.81;5056308;28;19921;-86
2023/03/17 05:01:04;;;;;;;;;;;;;;;17.17;19.44;98824.78;5053183;28;19929;-86
2023/03/17 05:03:30;;;;;;;;;;;;;;;16.89;20.05;98822.28;5048269;28;19927;-86
2023/03/17 05:05:56;;;;;;;;;;;;;;;17.36;19.39;98821.13;5052526;28;19928;-86
2023/03/17 05:08:23;;;;;;;;;;;;;;;15.15;21.85;98818.72;5055128;28;19943;-86
2023/03/17 05:10:50;;;;;;;;;;;;;;;15.51;21.91;98814.91;5051742;28;20047;-85
2023/03/17 05:13:16;;;;;;;;;;;;;;;16.11;21.05;98819.88;5048358;28;19929;-85
2023/03/17 05:15:49;;;;;;;;;;;;;;;16.15;20.98;98817.19;5049769;28;19929;-86
2023/03/17 05:18:15;;;;;;;;;;;;;;;16.49;20.71;98816.31;5052945;28;19927;-85
2023/03/17 05:20:41;;;;;;;;;;;;;;;16.14;21.22;98821.91;5047230;28;20332;-85
2023/03/17 05:23:07;;;;;;;;;;;;;;;16.19;21.26;98829.13;5042974;28;20052;-86
2023/03/17 05:25:33;;;;;;;;;;;;;;;16.44;21.00;98836.81;5043049;28;19936;-88
2023/03/17 05:27:59;;;;;;;;;;;;;;;14.80;22.86;98846.25;5046130;28;19929;-88
2023/03/17 05:30:26;;;;;;;;;;;;;;;16.29;21.74;98840.44;5049126;28;19970;-88
2023/03/17 05:32:52;;;;;;;;;;;;;;;17.31;20.57;98829.75;5045354;28;20326;-89
2023/03/17 05:35:19;;;;;;;;;;;;;;;16.14;21.74;98844.06;5043388;28;19970;-89
2023/03/17 05:37:45;;;;;;;;;;;;;;;14.26;23.91;98848.63;5049620;28;20501;-89
2023/03/17 05:40:13;;;;;;;;;;;;;;;16.16;22.43;98846.47;5048512;28;19928;-88
2023/03/17 05:42:40;;;;;;;;;;;;;;;17.26;20.73;98850.31;5050137;28;20059;-89
2023/03/17 05:45:06;;;;;;;;;;;;;;;16.80;21.52;98855.00;5042110;28;19925;-91
2023/03/17 05:47:33;;;;;;;;;;;;;;;17.38;21.17;98850.13;5051480;28;19944;-89
2023/03/17 05:49:59;;;;;;;;;;;;;;;16.11;22.75;98853.09;5044600;28;19921;-88
2023/03/17 05:52:26;;;;;;;;;;;;;;;14.46;24.39;98858.72;5045647;28;19929;-86
2023/03/17 05:54:52;;;;;;;;;;;;;;;14.48;24.76;98850.88;5038961;28;20381;-89
2023/03/17 05:57:18;;;;;;;;;;;;;;;15.74;23.22;98844.34;5047263;28;19938;-88
2023/03/17 05:59:44;;;;;;;;;;;;;;;16.09;23.03;98852.66;5050430;28;20381;-90
2023/03/17 06:02:10;;;;;;;;;;;;;;;15.27;23.88;98857.38;5042881;28;19920;-91
2023/03/17 06:04:37;;;;;;;;;;;;;;;16.10;23.26;98850.72;5048771;28;19976;-91
2023/03/17 06:07:06;;;;;;;;;;;;;;;16.47;23.20;98849.94;5052431;28;19920;-91
2023/03/17 06:09:32;;;;;;;;;;;;;;;15.72;23.67;98848.63;5053409;28;19949;-92
2023/03/17 06:11:59;;;;;;;;;;;;;;;16.10;24.03;98859.00;5051766;28;20012;-91
2023/03/17 06:14:25;;;;;;;;;;;;;;;17.46;21.52;98856.56;5032231;28;19918;-92
2023/03/17 06:16:51;;;;;;;;;;;;;;;17.58;21.80;98857.22;5034439;28;19935;-92
2023/03/17 06:19:17;;;;;;;;;;;;;;;17.48;21.44;98862.59;5053646;28;20355;-93
2023/03/17 06:21:43;;;;;;;;;;;;;;;16.43;23.45;98865.69;5053364;28;19964;-92
2023/03/17 06:24:09;;;;;;;;;;;;;;;16.32;24.17;98869.38;5051467;28;20320;-93
2023/03/17 06:26:38;;;;;;;;;;;;;;;16.66;23.79;98868.56;5053309;28;19920;-93
2023/03/17 06:29:07;;;;;;;;;;;;;;;15.47;25.48;98870.19;5045902;28;19921;-93
2023/03/17 06:31:34;;;;;;;;;;;;;;;15.06;24.94;98878.94;5050710;28;19905;-93
2023/03/17 06:34:00;;;;;;;;;;;;;;;16.36;23.73;98882.16;5043532;28;19932;-93
2023/03/17 06:36:26;;;;;;;;;;;;;;;16.85;22.67;98887.97;5052872;28;19917;-94
2023/03/17 06:38:52;;;;;;;;;;;;;;;17.08;23.25;98880.47;5069570;28;19916;-95
2023/03/17 06:41:18;;;;;;;;;;;;;;;16.19;24.17;98867.91;5069315;28;20332;-94
2023/03/17 06:43:45;;;;;;;;;;;;;;;16.17;24.84;98864.72;5052478;28;20389;-94
2023/03/17 06:46:11;;;;;;;;;;;;;;;17.32;23.03;98867.47;5050481;28;20393;-94
2023/03/17 06:48:37;;;;;;;;;;;;;;;17.14;23.28;98869.91;5053059;28;19917;-95
2023/03/17 06:51:03;;;;;;;;;;;;;;;18.90;22.24;98866.25;5052224;28;20414;-95
2023/03/17 06:53:30;;;;;;;;;;;;;;;17.76;22.32;98872.19;5052868;28;20292;-95
2023/03/17 06:55:56;;;;;;;;;;;;;;;17.55;22.35;98868.28;5050330;28;19921;-95
2023/03/17 06:58:23;;;;;;;;;;;;;;;17.04;23.56;98868.53;5054644;28;20069;-94
2023/03/17 07:00:52;;;;;;;;;;;;;;;18.35;22.96;98860.38;5057307;28;19970;-94
2023/03/17 07:03:20;;;;;;;;;;;;;;;17.40;23.54;98863.63;5056944;28;19928;-94
2023/03/17 07:05:47;;;;;;;;;;;;;;;17.26;23.56;98867.75;5055625;28;19925;-94
2023/03/17 07:08:13;;;;;;;;;;;;;;;17.74;23.89;98870.97;5037036;28;19917;-93
2023/03/17 07:10:43;;;;;;;;;;;;;;;19.64;21.37;98856.69;5041415;28;19924;-93
2023/03/17 07:13:09;;;;;;;;;;;;;;;18.03;21.79;98866.66;5057046;28;19917;-93
2023/03/17 07:15:36;;;;;;;;;;;;;;;18.95;20.97;98857.56;5056767;28;19921;-93
2023/03/17 07:18:02;;;;;;;;;;;;;;;19.49;21.85;98859.72;5057081;28;19988;-93
2023/03/17 07:20:29;;;;;;;;;;;;;;;20.29;20.09;98855.97;5057078;28;19921;-93
2023/03/17 07:22:55;;;;;;;;;;;;;;;21.09;19.12;98851.94;5057019;28;19924;-93
2023/03/17 07:25:21;;;;;;;;;;;;;;;20.78;19.75;98845.03;5056307;28;19921;-93
2023/03/17 07:27:47;;;;;;;;;;;;;;;20.49;20.59;98848.91;5047536;28;20007;-91
2023/03/17 07:30:17;;;;;;;;;;;;;;;19.64;20.89;98853.91;5036077;28;20324;-92
2023/03/17 07:32:44;;;;;;;;;;;;;;;18.96;21.18;98850.81;5036816;28;19949;-91
2023/03/17 07:35:12;;;;;;;;;;;;;;;20.79;19.16;98851.41;5052699;28;19960;-91
2023/03/17 07:37:38;;;;;;;;;;;;;;;21.10;19.24;98857.13;5055023;28;20291;-91
2023/03/17 07:40:05;;;;;;;;;;;;;;;21.43;19.56;98855.19;5054807;28;19928;-91
2023/03/17 07:42:31;;;;;;;;;;;;;;;19.71;20.46;98851.16;5054761;28;19921;-90
2023/03/17 07:44:57;;;;;;;;;;;;;;;21.22;18.53;98853.16;5056170;28;20377;-90
2023/03/17 07:47:23;;;;;;;;;;;;;;;21.10;18.42;98854.31;5071953;28;19970;-90
2023/03/17 07:49:49;;;;;;;;;;;;;;;19.70;19.50;98846.78;5055415;28;20023;-90
2023/03/17 07:52:15;;;;;;;;;;;;;;;20.81;19.15;98846.25;5056535;28;19928;-89
2023/03/17 07:54:42;;;;;;;;;;;;;;;21.42;17.81;98856.38;5056541;28;19917;-89
2023/03/17 07:57:08;;;;;;;;;;;;;;;20.83;19.05;98843.84;5056138;28;19924;-89
2023/03/17 07:59:34;;;;;;;;;;;;;;;21.81;17.99;98837.63;5041834;28;20379;-89
2023/03/17 08:02:00;;;;;;;;;;;;;;;22.64;17.06;98841.47;5052480;28;19925;-89
2023/03/17 08:04:26;;;;;;;;;;;;;;;23.32;16.62;98839.91;5056306;28;20467;-89
2023/03/17 08:06:53;;;;;;;;;;;;;;;22.35;16.98;98833.56;5056264;28;19924;-89
2023/03/17 08:09:21;;;;;;;;;;;;;;;23.23;16.93;98839.56;5053749;28;19928;-89
2023/03/17 08:11:47;;;;;;;;;;;;;;;23.98;15.61;98839.81;5067109;28;19920;-90
2023/03/17 08:14:13;;;;;;;;;;;;;;;23.39;16.52;98839.09;5076046;28;19916;-89
2023/03/17 08:16:40;;;;;;;;;;;;;;;23.67;16.16;98841.69;5075930;28;19912;-89
2023/03/17 08:19:06;;;;;;;;;;;;;;;24.29;16.25;98838.72;5068058;28;19925;-89
2023/03/17 08:21:32;;;;;;;;;;;;;;;23.45;16.63;98831.84;5055799;28;19916;-90
2023/03/17 08:23:58;;;;;;;;;;;;;;;24.16;15.46;98829.22;5055947;28;19916;-89
2023/03/17 08:26:25;;;;;;;;;;;;;;;24.23;15.63;98831.97;5047257;28;19917;-89
2023/03/17 08:28:51;;;;;;;;;;;;;;;23.67;16.36;98832.47;5039271;28;19917;-89
2023/03/17 08:31:19;;;;;;;;;;;;;;;20.80;19.45;98834.28;5055584;28;19917;-90
2023/03/17 08:33:46;;;;;;;;;;;;;;;22.72;17.21;98833.84;5054169;28;19916;-89
2023/03/17 08:36:12;;;;;;;;;;;;;;;21.88;17.18;98829.25;5049812;28;19923;-89
2023/03/17 08:38:39;;;;;;;;;;;;;;;22.56;17.25;98833.50;5054673;28;19917;-90
2023/03/17 08:41:06;;;;;;;;;;;;;;;21.20;18.80;98841.59;5055033;28;20335;-90
2023/03/17 08:43:33;;;;;;;;;;;;;;;20.52;19.77;98848.91;5055123;28;19920;-90
2023/03/17 08:46:01;;;;;;;;;;;;;;;22.05;16.30;98834.03;5055464;28;19921;-89
2023/03/17 08:48:29;;;;;;;;;;;;;;;23.09;15.96;98836.06;5052297;28;20284;-90
2023/03/17 08:50:55;;;;;;;;;;;;;;;20.49;18.61;98843.34;5054973;28;19921;-90
2023/03/17 08:53:21;;;;;;;;;;;;;;;20.07;18.87;98846.63;5053473;28;20301;-90
2023/03/17 08:55:47;;;;;;;;;;;;;;;22.11;17.84;98840.00;5053158;28;19921;-89
2023/03/17 08:58:14;;;;;;;;;;;;;;;;;;5055121;28;19924;-89
2023/03/17 09:00:40;;;;;;;;;;;;;;;22.48;16.72;98831.91;5052901;28;20066;-89
2023/03/17 09:03:07;;;;;;;;;;;;;;;21.47;18.03;98839.25;5056428;28;19928;-89
2023/03/17 09:05:33;;;;;;;;;;;;;;;23.02;15.43;98836.91;5064231;28;19925;-90
2023/03/17 09:07:59;;;;;;;;;;;;;;;21.78;18.00;98836.44;5062962;28;20019;-90
2023/03/17 09:10:25;;;;;;;;;;;;;;;23.79;15.61;98824.34;5050423;28;20265;-90
2023/03/17 09:12:52;;;;;;;;;;;;;;;24.21;16.06;98827.97;5054668;28;19916;-89
2023/03/17 09:15:18;;;;;;;;;;;;;;;24.63;14.58;98833.91;5054592;28;19924;-89
2023/03/17 09:17:44;;;;;;;;;;;;;;;24.71;14.41;98832.59;5055008;28;19913;-89
2023/03/17 09:20:10;;;;;;;;;;;;;;;24.67;13.77;98825.44;5054156;28;19920;-89
2023/03/17 09:22:36;;;;;;;;;;;;;;;24.16;16.13;98818.00;5053937;28;19939;-90
2023/03/17 09:25:02;;;;;;;;;;;;;;;23.51;16.36;98815.38;5046551;28;19913;-89
2023/03/17 09:27:28;;;;;;;;;;;;;;;25.08;15.20;98814.88;5034563;28;19917;-89
2023/03/17 09:29:55;;;;;;;;;;;;;;;25.46;13.64;98815.56;5049043;28;19977;-89
2023/03/17 09:32:21;;;;;;;;;;;;;;;22.74;15.56;98809.06;5054159;28;20433;-89
2023/03/17 09:34:47;;;;;;;;;;;;;;;23.12;16.46;98804.44;5053933;28;19924;-89
2023/03/17 09:37:13;;;;;;;;;;;;;;;23.19;14.78;98813.59;5052819;28;19916;-89
2023/03/17 09:39:40;;;;;;;;;;;;;;;22.63;15.97;98809.13;5054385;28;19917;-89
2023/03/17 09:42:12;;;;;;;;;;;;;;;24.43;14.55;98801.28;5053590;28;19920;-89
2023/03/17 09:44:55;;;;;;;;;;;;;;;25.77;14.90;98807.78;5054106;28;19921;-89
2023/03/17 09:47:39;;;;;;;;;;;;;;;26.22;14.85;98797.75;5054150;28;19923;-89
2023/03/17 09:50:14;;;;;;;;;;;;;;;24.90;15.67;98797.47;5047313;28;19940;-89
2023/03/17 09:52:41;;;;;;;;;;;;;;;24.81;13.25;98793.63;5054144;28;19917;-89
2023/03/17 09:55:11;;;;;;;;;;;;;;;24.95;14.60;98791.38;5053435;28;19965;-89
2023/03/17 09:57:39;;;;;;;;;;;;;;;24.38;14.36;98793.31;5054153;28;19975;-89
2023/03/17 10:00:13;;;;;;;;;;;;;;;25.28;14.49;98784.06;5052540;28;19924;-90
2023/03/17 10:02:40;;;;;;;;;;;;;;;24.33;16.37;98779.75;5053912;28;19920;-89
2023/03/17 10:05:18;;;;;;;;;;;;;;;26.02;14.44;98772.34;5053465;28;20381;-89
2023/03/17 10:07:48;;;;;;;;;;;;;;;25.08;15.40;98775.56;5057698;28;19916;-89
2023/03/17 10:10:18;;;;;;;;;;;;;;;25.01;14.92;98767.22;5063118;28;19927;-89
2023/03/17 10:12:59;;;;;;;;;;;;;;;25.65;14.17;98771.84;5053097;28;19921;-89
2023/03/17 10:15:24;;;;;;;;;;;;;;;26.39;14.10;98748.75;5053764;28;19923;-90
2023/03/17 10:17:52;;;;;;;;;;;;;;;24.42;15.40;98754.75;5068885;28;19913;-89
2023/03/17 10:20:26;;;;;;;;;;;;;;;23.09;17.80;98757.63;5045252;28;20345;-89
2023/03/17 10:22:56;;;;;;;;;;;;;;;24.25;13.83;98744.56;5047673;28;19983;-89
2023/03/17 10:25:33;;;;;;;;;;;;;;;24.42;15.59;98749.16;5053541;28;20430;-89
2023/03/17 10:27:59;;;;;;;;;;;;;;;24.59;15.38;98750.94;5053761;28;20327;-89
2023/03/17 10:30:26;;;;;;;;;;;;;;;25.26;14.35;98750.78;5053793;28;19928;-89
2023/03/17 10:32:55;;;;;;;;;;;;;;;25.77;14.77;98746.69;5053701;28;20067;-89
2023/03/17 10:35:22;;;;;;;;;;;;;;;26.17;14.18;98743.97;5057020;28;19925;-89
2023/03/17 10:37:48;;;;;;;;;;;;;;;25.83;13.91;98745.00;5057594;28;19923;-90
2023/03/17 10:40:25;;;;;;;;;;;;;;;25.74;14.52;98738.34;5057563;28;20011;-88
2023/03/17 10:42:52;;;;;;;;;;;;;;;26.24;13.94;98733.38;5059202;28;19921;-89
2023/03/17 10:45:29;;;;;;;;;;;;;;;25.47;17.23;98732.78;5077774;28;20296;-89
2023/03/17 10:47:56;;;;;;;;;;;;;;;25.29;14.64;98724.63;5077945;28;19927;-90
2023/03/17 10:50:33;;;;;;;;;;;;;;;25.95;15.44;98723.88;5063063;28;20288;-89
2023/03/17 10:53:02;;;;;;;;;;;;;;;27.41;13.81;98709.00;5057474;28;19921;-90
2023/03/17 10:55:30;;;;;;;;;;;;;;;24.03;18.00;98718.75;5056457;28;19916;-90
2023/03/17 10:57:59;;;;;;;;;;;;;;;25.75;14.40;98700.53;5057222;28;19924;-90
2023/03/17 11:00:27;;;;;;;;;;;;;;;26.48;14.71;98698.25;5057833;28;19920;-89
2023/03/17 11:02:57;;;;;;;;;;;;;;;26.37;14.14;98699.72;5056904;28;19977;-90
2023/03/17 11:05:26;;;;;;;;;;;;;;;25.86;15.29;98703.94;5057604;28;19924;-90
2023/03/17 11:08:10;;;;;;;;;;;;;;;25.88;12.25;98691.03;5070746;28;19924;-90
2023/03/17 11:10:38;;;;;;;;;;;;;;;26.74;15.51;98693.66;5077245;28;19921;-90
2023/03/17 11:13:04;;;;;;;;;;;;;;;23.90;17.33;98695.22;5077255;28;19917;-90
2023/03/17 11:15:36;;;;;;;;;;;;;;;26.11;15.40;98689.41;5064641;28;19916;-90
2023/03/17 11:18:22;;;;;;;;;;;;;;;26.43;14.74;98690.31;5055849;28;20372;-90
2023/03/17 11:20:57;;;;;;;;;;;;;;;26.11;15.62;98686.59;5055968;28;20377;-90
2023/03/17 11:23:26;;;;;;;;;;;;;;;26.59;14.46;98687.53;5056637;28;20027;-91
2023/03/17 11:26:03;;;;;;;;;;;;;;;26.48;14.19;98689.00;5057054;28;20288;-91
2023/03/17 11:28:34;;;;;;;;;;;;;;;26.38;15.44;98684.41;5057011;28;20428;-91
2023/03/17 11:31:18;;;;;;;;;;;;;;;26.54;14.89;98676.78;5056929;28;20011;-91
2023/03/17 11:34:03;;;;;;;;;;;;;;;24.85;18.83;98682.00;5041503;28;19966;-90
2023/03/17 11:36:29;;;;;;;;;;;;;;;24.84;19.00;98683.19;5062641;28;19947;-90
2023/03/17 11:38:55;;;;;;;;;;;;;;;25.54;16.69;98686.88;5062242;28;19955;-91
2023/03/17 11:41:40;;;;;;;;;;;;;;;22.69;19.99;98691.91;5057293;28;19960;-91
2023/03/17 11:44:12;;;;;;;;;;;;;;;24.54;16.25;98667.19;5056547;28;20298;-91
2023/03/17 11:46:48;;;;;;;;;;;;;;;21.48;21.36;98662.00;5056686;28;20395;-91
2023/03/17 11:49:14;;;;;;;;;;;;;;;22.42;17.92;98657.25;5054383;28;19921;-91
2023/03/17 11:51:58;;;;;;;;;;;;;;;22.14;19.78;98638.66;5056020;28;19921;-91
2023/03/17 11:54:27;;;;;;;;;;;;;;;20.57;22.12;98641.28;5056415;28;19940;-91
2023/03/17 11:56:56;;;;;;;;;;;;;;;21.71;19.55;98640.78;5056620;28;19917;-91
2023/03/17 11:59:28;;;;;;;;;;;;;;;24.01;14.09;98643.41;5053234;28;20002;-91
2023/03/17 12:02:10;;;;;;;;;;;;;;;25.41;13.18;98627.63;5053817;28;20339;-90
2023/03/17 12:04:40;;;;;;;;;;;;;;;27.10;13.86;98631.59;5056307;28;19929;-91
2023/03/17 12:07:28;;;;;;;;;;;;;;;27.77;13.41;98627.78;5063962;28;20338;-91
2023/03/17 12:10:03;;;;;;;;;;;;;;;28.74;13.69;98613.22;5036166;28;20046;-91
2023/03/17 12:12:32;;;;;;;;;;;;;;;28.83;12.32;98604.03;5050489;28;19917;-92
2023/03/17 12:15:01;;;;;;;;;;;;;;;28.27;13.10;98601.75;5056719;28;19927;-90
2023/03/17 12:17:35;;;;;;;;;;;;;;;27.33;11.10;98603.19;5054969;28;19936;-92
2023/03/17 12:20:11;;;;;;;;;;;;;;;26.57;12.43;98610.34;5054334;28;19923;-92
2023/03/17 12:22:52;;;;;;;;;;;;;;;26.70;13.00;98600.75;5040088;28;19928;-93
2023/03/17 12:25:21;;;;;;;;;;;;;;;27.21;12.03;98607.53;5054667;28;19916;-92
2023/03/17 12:28:09;;;;;;;;;;;;;;;27.92;11.98;98608.44;5056034;28;19917;-92
2023/03/17 12:30:44;;;;;;;;;;;;;;;28.39;12.37;98608.66;5053535;28;19931;-92
2023/03/17 12:33:10;;;;;;;;;;;;;;;28.71;11.78;98609.25;5037937;28;19929;-92
2023/03/17 12:35:39;;;;;;;;;;;;;;;28.72;13.90;98604.41;5056342;28;19970;-92
2023/03/17 12:38:16;;;;;;;;;;;;;;;28.38;12.05;98604.25;5056140;28;20023;-92
2023/03/17 12:40:45;;;;;;;;;;;;;;;26.33;18.57;98600.44;5055578;28;19986;-92
2023/03/17 12:43:14;;;;;;;;;;;;;;;24.17;16.44;98597.94;5054853;28;19987;-92
2023/03/17 12:45:40;;;;;;;;;;;;;;;26.06;14.27;98592.97;5055777;28;19923;-92
2023/03/17 12:48:22;;;;;;;;;;;;;;;24.38;19.16;98592.03;5055079;28;19925;-91
2023/03/17 12:51:06;;;;;;;;;;;;;;;26.77;13.84;98582.16;5035767;28;19917;-92
2023/03/17 12:53:33;;;;;;;;;;;;;;;26.79;18.32;98580.47;5035873;28;19944;-91